Time;durP1;ratioP1;P1;durP2;ratioP2;P2;SDS_P1;SDS_P2;PMS_P1;PMS_P2;Temp;Humidity;BMP_temperature;BMP_pressure;BME280_temperature;BME280_humidity;BME280_pressure;Samples;Min_cycle;Max_cycle;Signal;HPM_P1;HPM_P2
2024/03/27 00:00:11;;;;;;;25.85;10.07;;;;;;;;;;491758;28;1295;-78
2024/03/27 00:00:27;;;;;;;23.27;9.32;;;;;;;;;;492229;28;933;-78
2024/03/27 00:00:42;;;;;;;17.20;7.70;;;;;;;;;;493516;28;947;-79
2024/03/27 00:00:58;;;;;;;13.80;6.32;;;;;;;;;;492319;28;1299;-78
2024/03/27 00:01:13;;;;;;;11.57;5.05;;;;;;;;;;492791;28;1256;-78
2024/03/27 00:01:29;;;;;;;10.97;4.93;;;;;;;;;;487559;28;958;-77
2024/03/27 00:01:46;;;;;;;12.15;5.45;;;;;;;;;;488562;28;1102;-78
2024/03/27 00:02:01;;;;;;;15.13;6.63;;;;;;;;;;489208;28;1120;-81
2024/03/27 00:02:17;;;;;;;19.57;7.43;;;;;;;;;;491240;28;1029;-80
2024/03/27 00:02:32;;;;;;;20.25;7.95;;;;;;;;;;490655;28;1094;-81
2024/03/27 00:02:48;;;;;;;17.80;7.93;;;;;;;;;;488986;28;1170;-79
2024/03/27 00:03:04;;;;;;;14.30;6.78;;;;;;;;;;488450;28;1064;-81
2024/03/27 00:03:19;;;;;;;11.38;5.47;;;;;;;;;;492520;28;1082;-82
2024/03/27 00:03:35;;;;;;;14.53;6.70;;;;;;;;;;488139;28;1184;-79
2024/03/27 00:03:52;;;;;;;25.48;10.32;;;;;;;;;;485412;28;1317;-80
2024/03/27 00:04:09;;;;;;;33.83;13.00;;;;;;;;;;486691;29;1477;-80
2024/03/27 00:04:24;;;;;;;40.92;14.80;;;;;;;;;;485377;29;1368;-80
2024/03/27 00:04:40;;;;;;;38.47;13.60;;;;;;;;;;487539;28;1429;-79
2024/03/27 00:04:55;;;;;;;28.17;10.55;;;;;;;;;;487210;28;1319;-81
2024/03/27 00:05:11;;;;;;;26.23;9.97;;;;;;;;;;487997;28;1156;-79
2024/03/27 00:05:26;;;;;;;21.40;8.60;;;;;;;;;;486571;28;1242;-80
2024/03/27 00:05:42;;;;;;;15.87;6.73;;;;;;;;;;488827;28;1298;-80
2024/03/27 00:05:57;;;;;;;11.68;5.38;;;;;;;;;;496123;28;1117;-80
2024/03/27 00:06:13;;;;;;;11.35;4.68;;;;;;;;;;493524;28;1300;-83
2024/03/27 00:06:29;;;;;;;11.40;4.40;;;;;;;;;;488710;28;1362;-80
2024/03/27 00:06:44;;;;;;;7.97;3.90;;;;;;;;;;490519;28;999;-80
2024/03/27 00:07:00;;;;;;;9.03;4.33;;;;;;;;;;489278;28;1393;-80
2024/03/27 00:07:16;;;;;;;11.05;4.60;;;;;;;;;;492348;28;1238;-80
2024/03/27 00:07:31;;;;;;;10.40;4.13;;;;;;;;;;488933;28;1335;-80
2024/03/27 00:07:47;;;;;;;7.37;3.47;;;;;;;;;;486749;29;1255;-80
2024/03/27 00:08:03;;;;;;;5.80;3.13;;;;;;;;;;485645;29;1114;-80
2024/03/27 00:08:18;;;;;;;6.15;3.15;;;;;;;;;;487913;28;1225;-80
2024/03/27 00:08:34;;;;;;;5.53;3.03;;;;;;;;;;488605;28;977;-80
2024/03/27 00:08:49;;;;;;;4.45;2.70;;;;;;;;;;489065;28;1056;-80
2024/03/27 00:09:05;;;;;;;4.50;2.40;;;;;;;;;;490904;28;1212;-80
2024/03/27 00:09:22;;;;;;;4.13;2.30;;;;;;;;;;489826;28;1177;-80
2024/03/27 00:09:38;;;;;;;4.32;2.50;;;;;;;;;;491408;28;982;-80
2024/03/27 00:09:53;;;;;;;5.38;2.50;;;;;;;;;;495576;28;1012;-80
2024/03/27 00:10:09;;;;;;;4.70;2.30;;;;;;;;;;495138;28;1241;-80
2024/03/27 00:10:24;;;;;;;3.95;2.30;;;;;;;;;;490438;28;973;-80
2024/03/27 00:10:40;;;;;;;4.17;2.37;;;;;;;;;;489984;28;1092;-80
2024/03/27 00:10:56;;;;;;;3.75;2.17;;;;;;;;;;494890;28;1219;-79
2024/03/27 00:11:11;;;;;;;2.83;2.03;;;;;;;;;;496108;28;974;-80
2024/03/27 00:11:27;;;;;;;3.03;2.20;;;;;;;;;;489057;28;1271;-80
2024/03/27 00:11:43;;;;;;;3.33;2.30;;;;;;;;;;487753;28;1116;-80
2024/03/27 00:11:59;;;;;;;3.13;2.20;;;;;;;;;;487265;28;1192;-81
2024/03/27 00:12:14;;;;;;;3.35;2.25;;;;;;;;;;490569;28;1349;-81
2024/03/27 00:12:30;;;;;;;3.40;2.10;;;;;;;;;;487893;28;1074;-80
2024/03/27 00:12:45;;;;;;;3.83;2.10;;;;;;;;;;486810;28;1354;-80
2024/03/27 00:13:01;;;;;;;4.20;2.20;;;;;;;;;;488814;28;1286;-82
2024/03/27 00:13:16;;;;;;;3.65;2.05;;;;;;;;;;490242;28;1141;-80
2024/03/27 00:13:32;;;;;;;3.53;2.20;;;;;;;;;;488881;28;1255;-81
2024/03/27 00:13:47;;;;;;;3.35;2.20;;;;;;;;;;489151;28;1329;-80
2024/03/27 00:14:06;;;;;;;3.53;2.20;;;;;;;;;;489599;28;1326;-79
2024/03/27 00:14:21;;;;;;;3.42;2.30;;;;;;;;;;490384;28;1287;-80
2024/03/27 00:14:37;;;;;;;3.70;2.20;;;;;;;;;;489440;28;1105;-79
2024/03/27 00:14:53;;;;;;;3.30;2.10;;;;;;;;;;491412;28;1041;-80
2024/03/27 00:15:08;;;;;;;3.20;2.13;;;;;;;;;;491663;28;1291;-80
2024/03/27 00:15:24;;;;;;;3.00;2.03;;;;;;;;;;490527;28;1061;-80
2024/03/27 00:15:49;;;;;;;2.85;2.00;;;;;;;;;;489021;28;1395;-80
2024/03/27 00:16:04;;;;;;;4.70;2.20;;;;;;;;;;491586;28;1355;-80
2024/03/27 00:16:20;;;;;;;4.97;2.20;;;;;;;;;;491844;28;1495;-80
2024/03/27 00:16:36;;;;;;;4.00;2.10;;;;;;;;;;492300;28;1081;-80
2024/03/27 00:16:51;;;;;;;3.63;2.08;;;;;;;;;;487163;28;1222;-80
2024/03/27 00:17:07;;;;;;;4.17;2.30;;;;;;;;;;489502;28;950;-80
2024/03/27 00:17:22;;;;;;;4.13;2.55;;;;;;;;;;491487;28;1135;-80
2024/03/27 00:17:38;;;;;;;4.63;2.65;;;;;;;;;;492243;28;1145;-80
2024/03/27 00:17:54;;;;;;;6.40;3.03;;;;;;;;;;491001;28;1289;-80
2024/03/27 00:18:09;;;;;;;11.30;4.90;;;;;;;;;;491396;28;938;-80
2024/03/27 00:18:25;;;;;;;15.30;6.37;;;;;;;;;;488774;28;1310;-80
2024/03/27 00:18:40;;;;;;;16.35;6.78;;;;;;;;;;488685;28;1444;-80
2024/03/27 00:18:56;;;;;;;18.13;7.13;;;;;;;;;;491330;28;1193;-81
2024/03/27 00:19:13;;;;;;;21.10;7.43;;;;;;;;;;493527;28;964;-80
2024/03/27 00:19:29;;;;;;;22.98;7.45;;;;;;;;;;488821;28;2025;-80
2024/03/27 00:19:45;;;;;;;18.70;6.72;;;;;;;;;;489417;28;981;-80
2024/03/27 00:20:00;;;;;;;13.82;6.07;;;;;;;;;;491512;28;1017;-80
2024/03/27 00:20:16;;;;;;;11.90;5.47;;;;;;;;;;492513;28;1360;-80
2024/03/27 00:20:32;;;;;;;9.07;4.90;;;;;;;;;;491237;28;1214;-80
2024/03/27 00:20:48;;;;;;;8.98;4.75;;;;;;;;;;492654;28;1106;-79
2024/03/27 00:21:04;;;;;;;8.88;4.18;;;;;;;;;;491565;28;1316;-80
2024/03/27 00:21:19;;;;;;;7.50;3.50;;;;;;;;;;490986;28;1166;-79
2024/03/27 00:21:35;;;;;;;5.83;3.13;;;;;;;;;;489610;28;1029;-80
2024/03/27 00:21:50;;;;;;;4.43;2.67;;;;;;;;;;488695;28;1242;-80
2024/03/27 00:22:06;;;;;;;5.23;2.77;;;;;;;;;;491073;28;1075;-79
2024/03/27 00:22:22;;;;;;;6.33;3.40;;;;;;;;;;487828;28;1342;-80
2024/03/27 00:22:37;;;;;;;6.22;3.55;;;;;;;;;;486915;28;1043;-80
2024/03/27 00:22:53;;;;;;;6.88;3.30;;;;;;;;;;486990;28;1026;-79
2024/03/27 00:23:09;;;;;;;6.47;3.10;;;;;;;;;;486656;28;1217;-80
2024/03/27 00:23:24;;;;;;;4.32;2.90;;;;;;;;;;486886;28;1206;-80
2024/03/27 00:23:40;;;;;;;3.97;2.90;;;;;;;;;;489866;28;1347;-80
2024/03/27 00:23:55;;;;;;;4.90;3.20;;;;;;;;;;489563;28;1061;-81
2024/03/27 00:24:11;;;;;;;6.35;3.50;;;;;;;;;;493122;28;1292;-79
2024/03/27 00:24:29;;;;;;;6.03;3.30;;;;;;;;;;489604;28;1380;-80
2024/03/27 00:24:44;;;;;;;5.40;3.13;;;;;;;;;;487867;28;1392;-80
2024/03/27 00:25:00;;;;;;;5.05;3.25;;;;;;;;;;487275;29;1249;-80
2024/03/27 00:25:16;;;;;;;5.03;3.30;;;;;;;;;;489620;28;1189;-80
2024/03/27 00:25:31;;;;;;;4.90;3.28;;;;;;;;;;486993;28;1260;-80
2024/03/27 00:25:58;;;;;;;4.73;3.30;;;;;;;;;;490570;28;947;-80
2024/03/27 00:26:14;;;;;;;4.85;3.10;;;;;;;;;;492063;28;1200;-82
2024/03/27 00:26:31;;;;;;;4.68;3.20;;;;;;;;;;485098;29;1346;-80
2024/03/27 00:26:46;;;;;;;5.38;3.40;;;;;;;;;;488004;28;1253;-80
2024/03/27 00:27:03;;;;;;;5.95;3.60;;;;;;;;;;488702;28;961;-80
2024/03/27 00:27:19;;;;;;;5.75;3.38;;;;;;;;;;494090;28;1061;-80
2024/03/27 00:27:34;;;;;;;5.05;3.15;;;;;;;;;;489921;28;1283;-80
2024/03/27 00:27:50;;;;;;;5.07;3.10;;;;;;;;;;488544;28;1383;-79
2024/03/27 00:28:28;;;;;;;5.28;3.20;;;;;;;;;;490427;28;942;-79
2024/03/27 00:28:44;;;;;;;4.47;3.15;;;;;;;;;;490996;28;1168;-80
2024/03/27 00:29:00;;;;;;;4.40;3.07;;;;;;;;;;492482;28;1208;-80
2024/03/27 00:29:15;;;;;;;5.07;3.20;;;;;;;;;;493559;28;1237;-80
2024/03/27 00:29:31;;;;;;;4.72;2.95;;;;;;;;;;487905;28;1189;-80
2024/03/27 00:29:46;;;;;;;4.17;2.80;;;;;;;;;;486913;28;1193;-80
2024/03/27 00:30:03;;;;;;;4.22;2.90;;;;;;;;;;488441;28;1284;-80
2024/03/27 00:30:18;;;;;;;3.85;2.70;;;;;;;;;;488068;28;1465;-80
2024/03/27 00:30:34;;;;;;;4.40;2.70;;;;;;;;;;487365;28;1248;-80
2024/03/27 00:30:50;;;;;;;5.03;2.90;;;;;;;;;;485256;29;1265;-80
2024/03/27 00:31:05;;;;;;;5.10;2.88;;;;;;;;;;485241;29;1258;-80
2024/03/27 00:31:21;;;;;;;4.83;2.67;;;;;;;;;;486023;29;1051;-80
2024/03/27 00:31:36;;;;;;;4.03;2.60;;;;;;;;;;485611;28;1295;-80
2024/03/27 00:31:52;;;;;;;4.30;2.70;;;;;;;;;;485085;28;1303;-80
2024/03/27 00:32:07;;;;;;;5.13;2.93;;;;;;;;;;485083;29;1299;-80
2024/03/27 00:32:23;;;;;;;5.68;2.83;;;;;;;;;;485205;29;1308;-80
2024/03/27 00:32:39;;;;;;;4.85;2.70;;;;;;;;;;484775;28;1138;-80
2024/03/27 00:32:55;;;;;;;4.00;2.60;;;;;;;;;;485741;28;1000;-79
2024/03/27 00:33:14;;;;;;;3.45;2.33;;;;;;;;;;489208;28;1042;-79
2024/03/27 00:33:29;;;;;;;5.38;2.50;;;;;;;;;;489447;28;1065;-79
2024/03/27 00:33:45;;;;;;;6.00;2.60;;;;;;;;;;487409;28;1398;-79
2024/03/27 00:34:01;;;;;;;4.33;2.67;;;;;;;;;;488008;28;1245;-80
2024/03/27 00:34:16;;;;;;;4.45;2.65;;;;;;;;;;490753;28;1234;-81
2024/03/27 00:34:32;;;;;;;4.60;2.60;;;;;;;;;;486026;28;1255;-80
2024/03/27 00:34:47;;;;;;;4.73;2.70;;;;;;;;;;485790;29;1391;-80
2024/03/27 00:35:03;;;;;;;4.63;2.60;;;;;;;;;;487634;28;1138;-80
2024/03/27 00:35:19;;;;;;;4.28;2.75;;;;;;;;;;488681;29;1334;-80
2024/03/27 00:35:34;;;;;;;4.00;2.63;;;;;;;;;;486649;29;1325;-80
2024/03/27 00:35:54;;;;;;;4.45;2.78;;;;;;;;;;486892;29;1031;-80
2024/03/27 00:36:10;;;;;;;4.88;2.92;;;;;;;;;;486473;29;1169;-80
2024/03/27 00:36:25;;;;;;;5.67;2.77;;;;;;;;;;486640;28;1074;-80
2024/03/27 00:36:41;;;;;;;5.50;2.83;;;;;;;;;;486629;28;1161;-80
2024/03/27 00:36:59;;;;;;;4.53;2.67;;;;;;;;;;486461;28;1183;-80
2024/03/27 00:37:14;;;;;;;4.80;2.72;;;;;;;;;;488021;28;1261;-80
2024/03/27 00:37:30;;;;;;;4.88;3.10;;;;;;;;;;487190;28;1327;-80
2024/03/27 00:37:46;;;;;;;4.53;3.20;;;;;;;;;;486462;28;1312;-80
2024/03/27 00:38:01;;;;;;;4.27;2.90;;;;;;;;;;484716;29;1252;-80
2024/03/27 00:38:17;;;;;;;4.30;3.00;;;;;;;;;;484423;29;1333;-80
2024/03/27 00:38:33;;;;;;;4.57;3.10;;;;;;;;;;483928;29;1272;-79
2024/03/27 00:38:48;;;;;;;4.85;2.97;;;;;;;;;;484057;29;1099;-80
2024/03/27 00:39:04;;;;;;;4.87;3.00;;;;;;;;;;483916;29;1438;-80
2024/03/27 00:39:20;;;;;;;4.22;3.03;;;;;;;;;;484354;29;1950;-80
2024/03/27 00:39:35;;;;;;;4.80;2.97;;;;;;;;;;485351;28;1070;-80
2024/03/27 00:39:51;;;;;;;5.35;2.97;;;;;;;;;;488246;28;1296;-80
2024/03/27 00:40:08;;;;;;;4.30;2.83;;;;;;;;;;488444;28;1237;-79
2024/03/27 00:40:24;;;;;;;4.18;2.83;;;;;;;;;;490573;28;1201;-80
2024/03/27 00:40:39;;;;;;;4.40;2.90;;;;;;;;;;490234;28;1074;-80
2024/03/27 00:40:55;;;;;;;4.03;2.70;;;;;;;;;;491646;28;1084;-80
2024/03/27 00:41:11;;;;;;;3.73;2.60;;;;;;;;;;493482;28;1025;-80
2024/03/27 00:41:26;;;;;;;3.63;2.53;;;;;;;;;;488606;28;1172;-80
2024/03/27 00:41:42;;;;;;;4.75;2.83;;;;;;;;;;489933;28;1169;-80
2024/03/27 00:41:58;;;;;;;5.25;2.75;;;;;;;;;;489502;28;1327;-80
2024/03/27 00:42:14;;;;;;;3.63;2.63;;;;;;;;;;489577;28;1296;-81
2024/03/27 00:42:29;;;;;;;3.42;2.70;;;;;;;;;;489077;28;1334;-80
2024/03/27 00:42:46;;;;;;;3.80;2.70;;;;;;;;;;490388;28;1374;-80
2024/03/27 00:43:01;;;;;;;4.90;2.80;;;;;;;;;;488322;28;1284;-80
2024/03/27 00:43:18;;;;;;;4.20;2.58;;;;;;;;;;487623;28;1028;-80
2024/03/27 00:43:35;;;;;;;4.25;2.60;;;;;;;;;;488830;28;1345;-79
2024/03/27 00:43:50;;;;;;;4.68;2.72;;;;;;;;;;488882;28;958;-79
2024/03/27 00:44:05;;;;;;;4.20;2.60;;;;;;;;;;490704;28;942;-79
2024/03/27 00:44:21;;;;;;;3.80;2.60;;;;;;;;;;490162;28;1152;-80
2024/03/27 00:44:37;;;;;;;3.55;2.50;;;;;;;;;;489410;28;1187;-79
2024/03/27 00:44:52;;;;;;;3.53;2.40;;;;;;;;;;488395;28;1190;-80
2024/03/27 00:45:08;;;;;;;6.07;2.80;;;;;;;;;;489451;28;1117;-79
2024/03/27 00:45:24;;;;;;;8.85;3.00;;;;;;;;;;487836;28;1558;-80
2024/03/27 00:45:39;;;;;;;4.10;2.53;;;;;;;;;;489259;28;1335;-80
2024/03/27 00:45:55;;;;;;;4.00;2.60;;;;;;;;;;489303;28;1272;-79
2024/03/27 00:46:11;;;;;;;4.18;2.70;;;;;;;;;;494174;28;1338;-79
2024/03/27 00:46:26;;;;;;;4.05;2.60;;;;;;;;;;486998;28;1253;-80
2024/03/27 00:46:42;;;;;;;4.27;2.57;;;;;;;;;;484601;28;1173;-79
2024/03/27 00:46:57;;;;;;;4.18;2.58;;;;;;;;;;486907;28;1358;-80
2024/03/27 00:47:13;;;;;;;4.10;2.60;;;;;;;;;;487977;28;1034;-80
2024/03/27 00:47:28;;;;;;;4.10;2.80;;;;;;;;;;487438;28;1032;-79
2024/03/27 00:47:46;;;;;;;4.30;2.73;;;;;;;;;;486060;28;1300;-79
2024/03/27 00:48:02;;;;;;;4.60;2.60;;;;;;;;;;487806;28;1121;-80
2024/03/27 00:48:17;;;;;;;4.83;2.60;;;;;;;;;;489838;28;1434;-80
2024/03/27 00:48:33;;;;;;;4.87;2.60;;;;;;;;;;488806;28;1178;-80
2024/03/27 00:48:48;;;;;;;4.28;2.70;;;;;;;;;;491540;28;965;-80
2024/03/27 00:49:06;;;;;;;3.93;2.70;;;;;;;;;;489354;28;1157;-80
2024/03/27 00:49:22;;;;;;;3.83;2.60;;;;;;;;;;487191;28;1432;-80
2024/03/27 00:49:37;;;;;;;5.13;2.60;;;;;;;;;;486862;28;1298;-80
2024/03/27 00:49:53;;;;;;;5.00;2.70;;;;;;;;;;487660;28;1273;-80
2024/03/27 00:50:09;;;;;;;4.10;2.75;;;;;;;;;;487449;29;1178;-80
2024/03/27 00:50:24;;;;;;;4.20;2.67;;;;;;;;;;485354;28;1282;-81
2024/03/27 00:50:40;;;;;;;5.18;2.63;;;;;;;;;;486765;28;1260;-80
2024/03/27 00:50:55;;;;;;;8.48;2.70;;;;;;;;;;484905;28;1207;-81
2024/03/27 00:51:11;;;;;;;7.20;2.70;;;;;;;;;;488321;28;998;-80
2024/03/27 00:51:26;;;;;;;3.85;2.60;;;;;;;;;;485752;28;923;-80
2024/03/27 00:51:42;;;;;;;4.27;2.60;;;;;;;;;;485289;29;1248;-80
2024/03/27 00:51:57;;;;;;;4.10;2.55;;;;;;;;;;486789;28;1145;-81
2024/03/27 00:52:13;;;;;;;4.50;2.50;;;;;;;;;;486745;28;1263;-79
2024/03/27 00:52:29;;;;;;;4.55;2.60;;;;;;;;;;484927;28;1356;-80
2024/03/27 00:52:46;;;;;;;4.18;2.65;;;;;;;;;;486416;28;1356;-80
2024/03/27 00:53:03;;;;;;;4.30;2.63;;;;;;;;;;487657;28;1405;-79
2024/03/27 00:53:18;;;;;;;4.00;2.80;;;;;;;;;;490139;28;1240;-80
2024/03/27 00:53:34;;;;;;;4.57;3.00;;;;;;;;;;487356;28;1280;-80
2024/03/27 00:53:50;;;;;;;4.63;2.95;;;;;;;;;;490053;28;1192;-80
2024/03/27 00:54:05;;;;;;;4.57;2.93;;;;;;;;;;487164;28;1361;-80
2024/03/27 00:54:21;;;;;;;5.00;3.00;;;;;;;;;;488830;28;991;-80
2024/03/27 00:54:36;;;;;;;5.25;2.92;;;;;;;;;;488429;28;1332;-80
2024/03/27 00:54:52;;;;;;;5.70;2.93;;;;;;;;;;488216;28;1451;-80
2024/03/27 00:55:08;;;;;;;5.65;2.95;;;;;;;;;;491046;28;1248;-80
2024/03/27 00:55:23;;;;;;;5.10;2.90;;;;;;;;;;489554;28;1205;-80
2024/03/27 00:55:39;;;;;;;5.17;3.00;;;;;;;;;;490754;28;973;-80
2024/03/27 00:55:56;;;;;;;5.10;3.03;;;;;;;;;;491422;28;1515;-79
2024/03/27 00:56:11;;;;;;;4.05;2.95;;;;;;;;;;490093;28;1263;-80
2024/03/27 00:56:27;;;;;;;3.97;3.03;;;;;;;;;;489900;28;1203;-80
2024/03/27 00:56:43;;;;;;;3.83;2.90;;;;;;;;;;489883;28;1082;-80
2024/03/27 00:56:59;;;;;;;3.88;2.90;;;;;;;;;;487658;28;1313;-80
2024/03/27 00:57:15;;;;;;;4.47;3.05;;;;;;;;;;492625;28;1367;-80
2024/03/27 00:57:31;;;;;;;5.22;3.30;;;;;;;;;;486369;28;1404;-80
2024/03/27 00:57:46;;;;;;;5.13;3.20;;;;;;;;;;484781;29;1289;-80
2024/03/27 00:58:02;;;;;;;5.03;3.13;;;;;;;;;;483522;29;1142;-79
2024/03/27 00:58:18;;;;;;;5.18;3.10;;;;;;;;;;484389;29;1364;-80
2024/03/27 00:58:34;;;;;;;7.47;3.38;;;;;;;;;;482680;29;1221;-80
2024/03/27 00:58:49;;;;;;;6.57;3.30;;;;;;;;;;485232;29;1209;-80
2024/03/27 00:59:05;;;;;;;4.40;3.17;;;;;;;;;;486745;28;1273;-80
2024/03/27 00:59:21;;;;;;;5.30;3.33;;;;;;;;;;487898;28;2007;-80
2024/03/27 00:59:36;;;;;;;5.55;3.42;;;;;;;;;;486626;28;1135;-80
2024/03/27 00:59:52;;;;;;;6.10;3.43;;;;;;;;;;486243;28;1024;-80
2024/03/27 01:00:10;;;;;;;5.38;3.30;;;;;;;;;;490184;28;953;-80
2024/03/27 01:00:28;;;;;;;4.47;3.38;;;;;;;;;;489833;28;1342;-80
2024/03/27 01:00:43;;;;;;;6.35;3.50;;;;;;;;;;490737;28;913;-80
2024/03/27 01:00:59;;;;;;;5.30;3.50;;;;;;;;;;490153;28;925;-81
2024/03/27 01:01:14;;;;;;;4.60;3.40;;;;;;;;;;493530;28;1163;-80
2024/03/27 01:01:34;;;;;;;5.03;3.20;;;;;;;;;;490034;28;1140;-80
2024/03/27 01:01:49;;;;;;;6.80;3.40;;;;;;;;;;489875;28;1110;-80
2024/03/27 01:02:08;;;;;;;5.20;3.40;;;;;;;;;;492323;28;1302;-79
2024/03/27 01:02:24;;;;;;;4.80;3.40;;;;;;;;;;491717;28;1072;-79
2024/03/27 01:02:39;;;;;;;4.97;3.38;;;;;;;;;;489913;28;937;-80
2024/03/27 01:02:55;;;;;;;4.80;3.50;;;;;;;;;;489547;28;1471;-80
2024/03/27 01:03:11;;;;;;;4.43;3.30;;;;;;;;;;490215;28;1160;-80
2024/03/27 01:03:26;;;;;;;4.43;3.47;;;;;;;;;;488003;28;1178;-82
2024/03/27 01:03:42;;;;;;;4.77;3.57;;;;;;;;;;486321;28;1203;-80
2024/03/27 01:03:57;;;;;;;4.90;3.50;;;;;;;;;;488732;28;1196;-80
2024/03/27 01:04:13;;;;;;;4.50;3.40;;;;;;;;;;491632;28;1198;-80
2024/03/27 01:04:29;;;;;;;4.63;3.40;;;;;;;;;;484566;28;1460;-80
2024/03/27 01:04:48;;;;;;;5.53;3.75;;;;;;;;;;486468;28;1228;-80
2024/03/27 01:05:04;;;;;;;5.82;3.38;;;;;;;;;;486784;28;1243;-80
2024/03/27 01:05:20;;;;;;;5.40;3.20;;;;;;;;;;486547;29;967;-80
2024/03/27 01:05:39;;;;;;;4.68;3.30;;;;;;;;;;481554;29;1255;-80
2024/03/27 01:05:55;;;;;;;4.15;3.22;;;;;;;;;;484137;28;964;-80
2024/03/27 01:06:10;;;;;;;5.47;3.42;;;;;;;;;;487630;28;1213;-80
2024/03/27 01:06:26;;;;;;;5.60;3.87;;;;;;;;;;485431;28;1183;-80
2024/03/27 01:06:41;;;;;;;4.47;3.90;;;;;;;;;;485090;28;1103;-80
2024/03/27 01:06:57;;;;;;;4.13;3.55;;;;;;;;;;483789;29;1231;-79
2024/03/27 01:07:12;;;;;;;3.87;3.30;;;;;;;;;;486087;29;1211;-79
2024/03/27 01:07:28;;;;;;;4.38;3.35;;;;;;;;;;484916;29;1199;-80
2024/03/27 01:07:44;;;;;;;4.53;3.50;;;;;;;;;;482848;29;1139;-80
2024/03/27 01:07:59;;;;;;;4.15;3.33;;;;;;;;;;483720;29;973;-81
2024/03/27 01:08:15;;;;;;;4.93;3.30;;;;;;;;;;485547;29;1221;-80
2024/03/27 01:08:30;;;;;;;6.15;3.50;;;;;;;;;;483137;29;1039;-80
2024/03/27 01:08:46;;;;;;;6.37;3.60;;;;;;;;;;483646;28;1364;-80
2024/03/27 01:09:02;;;;;;;6.60;3.60;;;;;;;;;;485518;28;1002;-80
2024/03/27 01:09:18;;;;;;;5.43;3.50;;;;;;;;;;486367;28;1419;-80
2024/03/27 01:09:34;;;;;;;4.70;3.60;;;;;;;;;;486279;28;993;-80
2024/03/27 01:09:50;;;;;;;5.07;3.83;;;;;;;;;;489477;28;1096;-80
2024/03/27 01:10:06;;;;;;;5.30;3.80;;;;;;;;;;493283;28;1202;-80
2024/03/27 01:10:22;;;;;;;5.38;3.60;;;;;;;;;;488657;28;923;-80
2024/03/27 01:10:39;;;;;;;5.00;3.70;;;;;;;;;;489004;28;1241;-80
2024/03/27 01:10:54;;;;;;;5.25;3.60;;;;;;;;;;487705;28;970;-80
2024/03/27 01:11:10;;;;;;;5.37;3.60;;;;;;;;;;490753;28;1255;-80
2024/03/27 01:11:26;;;;;;;5.05;3.58;;;;;;;;;;486940;28;1027;-80
2024/03/27 01:11:41;;;;;;;5.40;3.50;;;;;;;;;;486719;28;1351;-80
2024/03/27 01:11:57;;;;;;;5.07;3.58;;;;;;;;;;487836;28;1264;-80
2024/03/27 01:12:12;;;;;;;4.80;3.57;;;;;;;;;;490574;28;1245;-80
2024/03/27 01:12:28;;;;;;;4.82;3.60;;;;;;;;;;485938;28;1099;-80
2024/03/27 01:12:43;;;;;;;4.47;3.47;;;;;;;;;;483754;29;1180;-80
2024/03/27 01:12:59;;;;;;;4.35;3.40;;;;;;;;;;484868;28;1468;-80
2024/03/27 01:13:17;;;;;;;4.32;3.40;;;;;;;;;;489942;28;1271;-80
2024/03/27 01:13:33;;;;;;;5.38;3.20;;;;;;;;;;488831;28;1093;-80
2024/03/27 01:13:48;;;;;;;4.63;3.47;;;;;;;;;;486325;28;1275;-80
2024/03/27 01:14:04;;;;;;;4.32;3.45;;;;;;;;;;486990;28;1176;-80
2024/03/27 01:14:19;;;;;;;4.40;3.33;;;;;;;;;;488106;28;1333;-80
2024/03/27 01:14:35;;;;;;;5.10;3.38;;;;;;;;;;485858;28;1177;-80
2024/03/27 01:14:51;;;;;;;5.27;3.40;;;;;;;;;;485627;28;1292;-81
2024/03/27 01:15:07;;;;;;;5.30;3.55;;;;;;;;;;488896;28;1122;-80
2024/03/27 01:15:23;;;;;;;5.60;3.60;;;;;;;;;;487294;28;1321;-80
2024/03/27 01:15:39;;;;;;;5.60;3.57;;;;;;;;;;487440;28;1185;-80
2024/03/27 01:15:54;;;;;;;6.05;3.75;;;;;;;;;;487510;28;1427;-79
2024/03/27 01:16:10;;;;;;;5.35;3.80;;;;;;;;;;489161;28;941;-80
2024/03/27 01:16:27;;;;;;;4.30;3.40;;;;;;;;;;488679;28;1089;-80
2024/03/27 01:16:43;;;;;;;3.67;3.10;;;;;;;;;;488186;28;1178;-80
2024/03/27 01:16:58;;;;;;;4.80;3.37;;;;;;;;;;486896;28;1369;-80
2024/03/27 01:17:14;;;;;;;4.88;3.40;;;;;;;;;;488658;28;935;-80
2024/03/27 01:17:29;;;;;;;4.60;3.57;;;;;;;;;;486646;28;950;-80
2024/03/27 01:17:46;;;;;;;4.35;3.50;;;;;;;;;;488796;28;1154;-80
2024/03/27 01:18:03;;;;;;;4.20;3.35;;;;;;;;;;489066;28;1086;-80
2024/03/27 01:18:19;;;;;;;4.45;3.30;;;;;;;;;;490550;28;1029;-80
2024/03/27 01:18:35;;;;;;;4.05;3.35;;;;;;;;;;488489;28;1401;-80
2024/03/27 01:18:50;;;;;;;4.00;3.30;;;;;;;;;;490849;28;1270;-80
2024/03/27 01:19:07;;;;;;;4.43;3.28;;;;;;;;;;490666;28;930;-80
2024/03/27 01:19:22;;;;;;;5.45;3.50;;;;;;;;;;489815;28;1966;-81
2024/03/27 01:19:38;;;;;;;5.40;3.80;;;;;;;;;;489870;28;1292;-80
2024/03/27 01:19:54;;;;;;;5.32;3.85;;;;;;;;;;489952;28;964;-80
2024/03/27 01:20:11;;;;;;;5.05;3.90;;;;;;;;;;489002;28;1078;-80
2024/03/27 01:20:27;;;;;;;5.87;3.97;;;;;;;;;;489940;28;1422;-80
2024/03/27 01:20:43;;;;;;;6.30;3.83;;;;;;;;;;489186;28;1036;-80
2024/03/27 01:20:59;;;;;;;5.30;3.60;;;;;;;;;;486649;28;1149;-80
2024/03/27 01:21:14;;;;;;;4.90;3.40;;;;;;;;;;489369;28;1139;-80
2024/03/27 01:21:30;;;;;;;4.88;3.40;;;;;;;;;;486955;28;1109;-80
2024/03/27 01:21:45;;;;;;;5.17;3.70;;;;;;;;;;484224;28;1419;-80
2024/03/27 01:22:01;;;;;;;4.95;3.65;;;;;;;;;;485810;28;1123;-77
2024/03/27 01:22:17;;;;;;;4.97;3.73;;;;;;;;;;489960;28;1112;-77
2024/03/27 01:22:32;;;;;;;5.50;3.80;;;;;;;;;;487341;28;937;-77
2024/03/27 01:22:49;;;;;;;5.00;3.67;;;;;;;;;;485467;28;1237;-77
2024/03/27 01:23:04;;;;;;;5.40;3.70;;;;;;;;;;486090;28;1304;-77
2024/03/27 01:23:20;;;;;;;5.40;3.63;;;;;;;;;;488556;28;1116;-76
2024/03/27 01:23:35;;;;;;;6.07;3.50;;;;;;;;;;487344;28;1078;-76
2024/03/27 01:23:51;;;;;;;6.32;3.40;;;;;;;;;;486917;28;1417;-78
2024/03/27 01:24:07;;;;;;;5.43;3.33;;;;;;;;;;487172;28;1431;-76
2024/03/27 01:24:22;;;;;;;6.10;3.60;;;;;;;;;;486549;28;1140;-77
2024/03/27 01:24:38;;;;;;;6.40;3.85;;;;;;;;;;485459;28;1305;-77
2024/03/27 01:24:53;;;;;;;5.90;3.90;;;;;;;;;;486779;28;1061;-76
2024/03/27 01:25:11;;;;;;;6.05;3.80;;;;;;;;;;487649;28;1115;-76
2024/03/27 01:25:27;;;;;;;5.93;3.60;;;;;;;;;;488450;28;1377;-77
2024/03/27 01:25:42;;;;;;;4.60;3.33;;;;;;;;;;488375;28;1313;-77
2024/03/27 01:26:02;;;;;;;4.20;3.30;;;;;;;;;;487274;28;985;-77
2024/03/27 01:26:18;;;;;;;4.00;3.20;;;;;;;;;;489954;28;1299;-77
2024/03/27 01:26:33;;;;;;;3.57;3.20;;;;;;;;;;488429;28;1317;-77
2024/03/27 01:26:49;;;;;;;4.32;3.45;;;;;;;;;;489009;28;926;-77
2024/03/27 01:27:05;;;;;;;4.20;3.40;;;;;;;;;;487706;28;1205;-77
2024/03/27 01:27:20;;;;;;;3.70;3.10;;;;;;;;;;485862;28;1150;-77
2024/03/27 01:27:36;;;;;;;3.90;3.10;;;;;;;;;;484100;28;966;-77
2024/03/27 01:27:52;;;;;;;3.93;3.20;;;;;;;;;;485774;28;1259;-77
2024/03/27 01:28:10;;;;;;;3.70;3.20;;;;;;;;;;484413;29;1411;-78
2024/03/27 01:28:25;;;;;;;3.70;3.03;;;;;;;;;;483948;28;1399;-78
2024/03/27 01:28:41;;;;;;;3.63;3.00;;;;;;;;;;485092;28;1036;-78
2024/03/27 01:28:56;;;;;;;4.22;3.20;;;;;;;;;;484792;28;1332;-78
2024/03/27 01:29:12;;;;;;;4.10;3.10;;;;;;;;;;487392;28;1074;-77
2024/03/27 01:29:28;;;;;;;3.92;3.20;;;;;;;;;;485446;28;1230;-78
2024/03/27 01:29:43;;;;;;;4.20;3.40;;;;;;;;;;484750;28;1292;-78
2024/03/27 01:29:59;;;;;;;3.70;3.22;;;;;;;;;;485544;28;1123;-78
2024/03/27 01:30:14;;;;;;;4.03;3.33;;;;;;;;;;488278;28;1282;-78
2024/03/27 01:30:30;;;;;;;4.40;3.40;;;;;;;;;;486836;28;1144;-78
2024/03/27 01:30:46;;;;;;;4.28;3.28;;;;;;;;;;484469;28;1236;-78
2024/03/27 01:31:02;;;;;;;4.38;3.30;;;;;;;;;;484785;28;1271;-78
2024/03/27 01:31:17;;;;;;;5.17;3.63;;;;;;;;;;485323;28;1248;-79
2024/03/27 01:31:33;;;;;;;5.40;3.50;;;;;;;;;;484077;28;1193;-78
2024/03/27 01:31:48;;;;;;;4.63;3.30;;;;;;;;;;487477;28;918;-81
2024/03/27 01:32:04;;;;;;;4.57;3.58;;;;;;;;;;485695;28;1320;-81
2024/03/27 01:32:26;;;;;;;4.53;3.50;;;;;;;;;;486777;28;994;-81
2024/03/27 01:32:42;;;;;;;4.07;3.22;;;;;;;;;;483479;29;1281;-80
2024/03/27 01:32:57;;;;;;;3.60;3.20;;;;;;;;;;482890;29;1249;-82
2024/03/27 01:33:13;;;;;;;4.43;3.40;;;;;;;;;;488291;28;1257;-81
2024/03/27 01:33:29;;;;;;;4.88;3.63;;;;;;;;;;484614;28;945;-81
2024/03/27 01:33:48;;;;;;;4.70;3.70;;;;;;;;;;483946;28;1232;-82
2024/03/27 01:34:03;;;;;;;5.55;3.80;;;;;;;;;;487859;28;1093;-81
2024/03/27 01:34:19;;;;;;;5.50;3.85;;;;;;;;;;485609;28;1236;-81
2024/03/27 01:34:34;;;;;;;5.87;4.00;;;;;;;;;;485721;28;1033;-81
2024/03/27 01:34:50;;;;;;;6.70;4.03;;;;;;;;;;490033;28;1409;-81
2024/03/27 01:35:06;;;;;;;6.18;3.90;;;;;;;;;;486950;28;1330;-81
2024/03/27 01:35:21;;;;;;;5.10;3.83;;;;;;;;;;489415;28;910;-82
2024/03/27 01:35:44;;;;;;;5.38;3.80;;;;;;;;;;488612;28;1301;-81
2024/03/27 01:36:00;;;;;;;6.35;4.55;;;;;;;;;;485383;28;1327;-81
2024/03/27 01:36:15;;;;;;;6.40;4.78;;;;;;;;;;487089;28;1259;-81
2024/03/27 01:36:31;;;;;;;5.80;4.60;;;;;;;;;;485145;28;1244;-81
2024/03/27 01:36:47;;;;;;;7.72;4.70;;;;;;;;;;483884;29;1252;-81
2024/03/27 01:37:02;;;;;;;6.97;4.43;;;;;;;;;;486276;28;1091;-81
2024/03/27 01:37:21;;;;;;;5.50;3.93;;;;;;;;;;487193;29;1016;-81
2024/03/27 01:37:36;;;;;;;6.45;4.00;;;;;;;;;;484243;29;1157;-81
2024/03/27 01:37:53;;;;;;;5.30;3.90;;;;;;;;;;483968;28;1279;-81
2024/03/27 01:38:08;;;;;;;6.03;4.20;;;;;;;;;;487197;28;1437;-81
2024/03/27 01:38:23;;;;;;;6.53;4.25;;;;;;;;;;484606;28;1192;-80
2024/03/27 01:38:39;;;;;;;5.60;3.90;;;;;;;;;;485846;28;954;-81
2024/03/27 01:38:55;;;;;;;5.03;4.10;;;;;;;;;;486955;28;954;-81